sensor_id;sensor_type;location;lat;lon;timestamp;pressure;altitude;pressure_sealevel;temperature;humidity
9335;BME280;4706;41.844;26.082;2023-02-13T00:01:49;102843.00;;;3.65;59.98
9335;BME280;4706;41.844;26.082;2023-02-13T00:04:14;102847.88;;;3.76;60.66
9335;BME280;4706;41.844;26.082;2023-02-13T00:06:40;102838.34;;;3.59;60.96
9335;BME280;4706;41.844;26.082;2023-02-13T00:09:06;102849.06;;;3.67;61.07
9335;BME280;4706;41.844;26.082;2023-02-13T00:11:35;102844.31;;;3.76;60.85
9335;BME280;4706;41.844;26.082;2023-02-13T00:14:01;102839.47;;;3.71;60.26
9335;BME280;4706;41.844;26.082;2023-02-13T00:16:27;102852.34;;;3.84;60.44
9335;BME280;4706;41.844;26.082;2023-02-13T00:18:52;102852.50;;;3.82;60.75
9335;BME280;4706;41.844;26.082;2023-02-13T00:21:18;102859.44;;;3.85;60.21
9335;BME280;4706;41.844;26.082;2023-02-13T00:23:43;102848.13;;;3.81;60.47
9335;BME280;4706;41.844;26.082;2023-02-13T00:26:14;102850.88;;;3.88;60.36
9335;BME280;4706;41.844;26.082;2023-02-13T00:28:40;102847.56;;;3.93;59.87
9335;BME280;4706;41.844;26.082;2023-02-13T00:31:10;102849.50;;;3.99;59.28
9335;BME280;4706;41.844;26.082;2023-02-13T00:33:37;102851.16;;;4.00;59.32
9335;BME280;4706;41.844;26.082;2023-02-13T00:36:11;102854.72;;;4.00;59.18
9335;BME280;4706;41.844;26.082;2023-02-13T00:38:39;102856.03;;;4.11;59.12
9335;BME280;4706;41.844;26.082;2023-02-13T00:41:05;102844.50;;;4.09;58.53
9335;BME280;4706;41.844;26.082;2023-02-13T00:43:31;102856.50;;;4.21;58.73
9335;BME280;4706;41.844;26.082;2023-02-13T00:45:57;102843.97;;;4.27;58.06
9335;BME280;4706;41.844;26.082;2023-02-13T00:48:24;102847.75;;;4.32;57.76
9335;BME280;4706;41.844;26.082;2023-02-13T00:50:50;102843.56;;;4.30;57.93
9335;BME280;4706;41.844;26.082;2023-02-13T00:53:18;102849.19;;;4.28;57.39
9335;BME280;4706;41.844;26.082;2023-02-13T00:55:43;102849.53;;;4.12;57.91
9335;BME280;4706;41.844;26.082;2023-02-13T00:58:09;102848.50;;;4.13;57.44
9335;BME280;4706;41.844;26.082;2023-02-13T01:00:34;102855.81;;;4.12;57.69
9335;BME280;4706;41.844;26.082;2023-02-13T01:03:00;102853.94;;;4.13;57.81
9335;BME280;4706;41.844;26.082;2023-02-13T01:05:26;102858.16;;;4.16;58.25
9335;BME280;4706;41.844;26.082;2023-02-13T01:07:52;102857.28;;;4.08;57.58
9335;BME280;4706;41.844;26.082;2023-02-13T01:10:18;102863.94;;;3.99;57.85
9335;BME280;4706;41.844;26.082;2023-02-13T01:12:43;102855.06;;;3.84;58.16
9335;BME280;4706;41.844;26.082;2023-02-13T01:15:09;102852.50;;;3.82;58.30
9335;BME280;4706;41.844;26.082;2023-02-13T01:17:34;102853.72;;;3.73;58.27
9335;BME280;4706;41.844;26.082;2023-02-13T01:20:00;102857.06;;;3.75;57.58
9335;BME280;4706;41.844;26.082;2023-02-13T01:22:25;102858.78;;;3.76;58.88
9335;BME280;4706;41.844;26.082;2023-02-13T01:24:51;102857.69;;;3.71;59.02
9335;BME280;4706;41.844;26.082;2023-02-13T01:27:16;102853.22;;;3.63;58.74
9335;BME280;4706;41.844;26.082;2023-02-13T01:29:42;102845.44;;;3.60;58.73
9335;BME280;4706;41.844;26.082;2023-02-13T01:32:07;102854.13;;;3.70;58.66
9335;BME280;4706;41.844;26.082;2023-02-13T01:34:33;102852.88;;;3.73;58.48
9335;BME280;4706;41.844;26.082;2023-02-13T01:36:59;102861.56;;;3.89;58.21
9335;BME280;4706;41.844;26.082;2023-02-13T01:39:25;102852.88;;;3.73;58.21
9335;BME280;4706;41.844;26.082;2023-02-13T01:41:50;102854.94;;;3.71;58.27
9335;BME280;4706;41.844;26.082;2023-02-13T01:47:11;102858.28;;;3.66;58.48
9335;BME280;4706;41.844;26.082;2023-02-13T01:49:38;102857.44;;;3.65;58.71
9335;BME280;4706;41.844;26.082;2023-02-13T01:52:05;102852.56;;;3.61;58.73
9335;BME280;4706;41.844;26.082;2023-02-13T01:54:34;102862.91;;;3.44;58.86
9335;BME280;4706;41.844;26.082;2023-02-13T01:57:09;102856.78;;;3.35;59.36
9335;BME280;4706;41.844;26.082;2023-02-13T01:59:45;102868.69;;;3.34;58.89
9335;BME280;4706;41.844;26.082;2023-02-13T02:02:12;102865.09;;;3.27;59.33
9335;BME280;4706;41.844;26.082;2023-02-13T02:04:39;102877.31;;;3.38;58.62
9335;BME280;4706;41.844;26.082;2023-02-13T02:07:13;102870.25;;;3.22;58.85
9335;BME280;4706;41.844;26.082;2023-02-13T02:09:41;102873.78;;;3.16;59.53
9335;BME280;4706;41.844;26.082;2023-02-13T02:12:13;102874.47;;;3.25;59.60
9335;BME280;4706;41.844;26.082;2023-02-13T02:14:42;102882.75;;;3.38;58.75
9335;BME280;4706;41.844;26.082;2023-02-13T02:17:08;102883.25;;;3.48;57.77
9335;BME280;4706;41.844;26.082;2023-02-13T02:22:18;102869.06;;;3.53;56.68
9335;BME280;4706;41.844;26.082;2023-02-13T02:27:45;102882.19;;;3.43;57.26
9335;BME280;4706;41.844;26.082;2023-02-13T02:36:09;102890.50;;;3.41;58.57
9335;BME280;4706;41.844;26.082;2023-02-13T02:46:57;102889.44;;;3.14;58.56
9335;BME280;4706;41.844;26.082;2023-02-13T02:49:43;102898.03;;;2.96;59.22
9335;BME280;4706;41.844;26.082;2023-02-13T02:55:30;102894.25;;;2.76;59.72
9335;BME280;4706;41.844;26.082;2023-02-13T02:58:24;102893.13;;;2.70;59.49
9335;BME280;4706;41.844;26.082;2023-02-13T03:01:14;102888.63;;;2.77;59.14
9335;BME280;4706;41.844;26.082;2023-02-13T03:03:59;102906.09;;;2.89;59.02
9335;BME280;4706;41.844;26.082;2023-02-13T03:06:48;102898.63;;;2.91;58.71
9335;BME280;4706;41.844;26.082;2023-02-13T03:09:19;102905.16;;;2.97;58.92
9335;BME280;4706;41.844;26.082;2023-02-13T03:12:23;102908.31;;;3.01;59.05
9335;BME280;4706;41.844;26.082;2023-02-13T03:15:09;102902.63;;;2.96;59.01
9335;BME280;4706;41.844;26.082;2023-02-13T03:17:35;102902.28;;;2.84;59.47
9335;BME280;4706;41.844;26.082;2023-02-13T03:29:06;102917.59;;;3.06;58.40
9335;BME280;4706;41.844;26.082;2023-02-13T03:32:02;102915.91;;;3.05;58.32
9335;BME280;4706;41.844;26.082;2023-02-13T03:34:32;102917.34;;;3.01;58.19
9335;BME280;4706;41.844;26.082;2023-02-13T03:37:39;102919.84;;;3.03;58.37
9335;BME280;4706;41.844;26.082;2023-02-13T03:40:57;102926.25;;;2.95;58.60
9335;BME280;4706;41.844;26.082;2023-02-13T03:46:25;102934.72;;;2.85;59.19
9335;BME280;4706;41.844;26.082;2023-02-13T03:48:52;102936.59;;;2.85;59.05
9335;BME280;4706;41.844;26.082;2023-02-13T03:51:47;102928.44;;;2.85;59.05
9335;BME280;4706;41.844;26.082;2023-02-13T03:54:19;102928.25;;;2.86;59.01
9335;BME280;4706;41.844;26.082;2023-02-13T03:56:48;102933.16;;;2.76;59.03
9335;BME280;4706;41.844;26.082;2023-02-13T03:59:34;102941.38;;;2.83;58.85
9335;BME280;4706;41.844;26.082;2023-02-13T04:02:11;102930.19;;;2.71;59.00
9335;BME280;4706;41.844;26.082;2023-02-13T04:07:17;102938.81;;;2.60;59.15
9335;BME280;4706;41.844;26.082;2023-02-13T04:09:59;102932.25;;;2.54;59.54
9335;BME280;4706;41.844;26.082;2023-02-13T04:12:34;102930.00;;;2.43;59.27
9335;BME280;4706;41.844;26.082;2023-02-13T04:15:18;102934.03;;;2.32;59.54
9335;BME280;4706;41.844;26.082;2023-02-13T04:17:55;102941.19;;;2.33;60.14
9335;BME280;4706;41.844;26.082;2023-02-13T04:20:26;102918.69;;;2.25;59.99
9335;BME280;4706;41.844;26.082;2023-02-13T04:22:52;102939.09;;;2.21;60.03
9335;BME280;4706;41.844;26.082;2023-02-13T04:25:18;102930.59;;;2.24;60.07
9335;BME280;4706;41.844;26.082;2023-02-13T04:27:45;102928.97;;;2.29;60.51
9335;BME280;4706;41.844;26.082;2023-02-13T04:30:11;102922.16;;;2.33;60.35
9335;BME280;4706;41.844;26.082;2023-02-13T04:32:37;102936.75;;;2.32;60.56
9335;BME280;4706;41.844;26.082;2023-02-13T04:35:02;102938.72;;;2.24;60.65
9335;BME280;4706;41.844;26.082;2023-02-13T04:37:28;102938.25;;;2.05;60.96
9335;BME280;4706;41.844;26.082;2023-02-13T04:39:53;102935.34;;;2.07;61.66
9335;BME280;4706;41.844;26.082;2023-02-13T04:42:19;102947.22;;;2.06;61.39
9335;BME280;4706;41.844;26.082;2023-02-13T04:44:44;102944.03;;;2.02;61.91
9335;BME280;4706;41.844;26.082;2023-02-13T04:47:10;102945.66;;;2.11;61.50
9335;BME280;4706;41.844;26.082;2023-02-13T04:49:35;102942.94;;;2.11;61.29
9335;BME280;4706;41.844;26.082;2023-02-13T04:52:01;102942.72;;;1.98;61.59
9335;BME280;4706;41.844;26.082;2023-02-13T04:54:27;102939.09;;;2.06;61.75
9335;BME280;4706;41.844;26.082;2023-02-13T04:56:52;102952.41;;;2.15;62.03
9335;BME280;4706;41.844;26.082;2023-02-13T04:59:18;102952.88;;;2.19;61.48
9335;BME280;4706;41.844;26.082;2023-02-13T05:01:43;102961.28;;;2.24;61.11
9335;BME280;4706;41.844;26.082;2023-02-13T05:04:09;102957.75;;;2.24;61.36
9335;BME280;4706;41.844;26.082;2023-02-13T05:06:35;102956.31;;;2.13;61.24
9335;BME280;4706;41.844;26.082;2023-02-13T05:09:02;102955.03;;;2.24;60.80
9335;BME280;4706;41.844;26.082;2023-02-13T05:11:27;102943.50;;;2.22;61.01
9335;BME280;4706;41.844;26.082;2023-02-13T05:13:53;102953.34;;;2.08;61.02
9335;BME280;4706;41.844;26.082;2023-02-13T05:16:19;102961.28;;;2.24;60.91
9335;BME280;4706;41.844;26.082;2023-02-13T05:18:44;102977.78;;;2.23;60.52
9335;BME280;4706;41.844;26.082;2023-02-13T05:21:09;102973.16;;;2.08;60.90
9335;BME280;4706;41.844;26.082;2023-02-13T05:23:53;102979.44;;;2.09;60.95
9335;BME280;4706;41.844;26.082;2023-02-13T05:26:19;102976.38;;;2.12;60.74
9335;BME280;4706;41.844;26.082;2023-02-13T05:28:44;102985.47;;;2.19;60.62
9335;BME280;4706;41.844;26.082;2023-02-13T05:31:28;102976.69;;;1.94;60.68
9335;BME280;4706;41.844;26.082;2023-02-13T05:33:53;102987.31;;;2.04;60.36
9335;BME280;4706;41.844;26.082;2023-02-13T05:36:19;102986.84;;;2.00;61.09
9335;BME280;4706;41.844;26.082;2023-02-13T05:38:44;102994.91;;;2.08;61.08
9335;BME280;4706;41.844;26.082;2023-02-13T05:41:10;102967.16;;;1.98;61.22
9335;BME280;4706;41.844;26.082;2023-02-13T05:43:37;102999.59;;;2.14;61.64
9335;BME280;4706;41.844;26.082;2023-02-13T05:46:08;102995.25;;;2.05;61.89
9335;BME280;4706;41.844;26.082;2023-02-13T05:48:34;102995.00;;;2.15;61.67
9335;BME280;4706;41.844;26.082;2023-02-13T05:51:00;102993.97;;;2.31;61.39
9335;BME280;4706;41.844;26.082;2023-02-13T05:53:26;103004.38;;;2.42;60.38
9335;BME280;4706;41.844;26.082;2023-02-13T05:55:52;102971.31;;;2.24;60.56
9335;BME280;4706;41.844;26.082;2023-02-13T05:58:18;102992.94;;;2.32;61.29
9335;BME280;4706;41.844;26.082;2023-02-13T06:00:44;102997.75;;;2.45;61.15
9335;BME280;4706;41.844;26.082;2023-02-13T06:03:10;103008.69;;;2.66;60.83
9335;BME280;4706;41.844;26.082;2023-02-13T06:05:35;103006.72;;;2.75;60.34
9335;BME280;4706;41.844;26.082;2023-02-13T06:08:01;103011.75;;;2.78;60.34
9335;BME280;4706;41.844;26.082;2023-02-13T06:10:27;103006.63;;;2.83;60.60
9335;BME280;4706;41.844;26.082;2023-02-13T06:12:52;103014.19;;;3.02;60.43
9335;BME280;4706;41.844;26.082;2023-02-13T06:15:17;103007.38;;;3.28;59.41
9335;BME280;4706;41.844;26.082;2023-02-13T06:17:43;103006.25;;;3.22;60.26
9335;BME280;4706;41.844;26.082;2023-02-13T06:20:09;103014.75;;;3.34;59.78
9335;BME280;4706;41.844;26.082;2023-02-13T06:22:34;103007.63;;;3.33;60.17
9335;BME280;4706;41.844;26.082;2023-02-13T06:25:00;103010.81;;;3.36;60.25
9335;BME280;4706;41.844;26.082;2023-02-13T06:27:25;102999.94;;;3.36;60.16
9335;BME280;4706;41.844;26.082;2023-02-13T06:29:51;103009.53;;;3.54;59.98
9335;BME280;4706;41.844;26.082;2023-02-13T06:32:16;103016.31;;;3.64;60.31
9335;BME280;4706;41.844;26.082;2023-02-13T06:34:42;103014.94;;;3.75;59.98
9335;BME280;4706;41.844;26.082;2023-02-13T06:37:07;103014.63;;;3.85;59.78
9335;BME280;4706;41.844;26.082;2023-02-13T06:39:33;103016.16;;;3.94;59.51
9335;BME280;4706;41.844;26.082;2023-02-13T06:41:58;103023.94;;;3.97;59.97
9335;BME280;4706;41.844;26.082;2023-02-13T06:44:24;103025.97;;;4.10;59.37
9335;BME280;4706;41.844;26.082;2023-02-13T06:46:50;103019.38;;;4.26;59.38
9335;BME280;4706;41.844;26.082;2023-02-13T06:49:15;103020.50;;;4.38;59.20
9335;BME280;4706;41.844;26.082;2023-02-13T06:51:41;103006.38;;;4.56;59.32
9335;BME280;4706;41.844;26.082;2023-02-13T06:54:06;103011.69;;;4.77;59.00
9335;BME280;4706;41.844;26.082;2023-02-13T06:56:31;103022.31;;;5.07;57.73
9335;BME280;4706;41.844;26.082;2023-02-13T06:58:57;103015.28;;;5.32;57.50
9335;BME280;4706;41.844;26.082;2023-02-13T07:01:22;103018.50;;;5.49;57.23
9335;BME280;4706;41.844;26.082;2023-02-13T07:03:48;103017.03;;;5.67;56.23
9335;BME280;4706;41.844;26.082;2023-02-13T07:06:17;103006.13;;;5.87;56.32
9335;BME280;4706;41.844;26.082;2023-02-13T07:08:43;103012.22;;;5.89;55.26
9335;BME280;4706;41.844;26.082;2023-02-13T07:11:16;103017.53;;;6.10;55.37
9335;BME280;4706;41.844;26.082;2023-02-13T07:13:43;103017.28;;;6.31;54.71
9335;BME280;4706;41.844;26.082;2023-02-13T07:16:08;103014.06;;;6.68;53.17
9335;BME280;4706;41.844;26.082;2023-02-13T07:18:33;103016.09;;;6.92;52.21
9335;BME280;4706;41.844;26.082;2023-02-13T07:20:59;103012.69;;;7.03;52.90
9335;BME280;4706;41.844;26.082;2023-02-13T07:23:25;103020.38;;;7.20;53.11
9335;BME280;4706;41.844;26.082;2023-02-13T07:25:50;103011.06;;;7.27;53.00
9335;BME280;4706;41.844;26.082;2023-02-13T07:28:15;103020.59;;;7.57;50.72
9335;BME280;4706;41.844;26.082;2023-02-13T07:30:41;103022.09;;;7.84;49.89
9335;BME280;4706;41.844;26.082;2023-02-13T07:33:06;103027.59;;;8.09;48.97
9335;BME280;4706;41.844;26.082;2023-02-13T07:35:32;103014.75;;;8.03;48.97
9335;BME280;4706;41.844;26.082;2023-02-13T07:37:58;103020.16;;;8.16;49.43
9335;BME280;4706;41.844;26.082;2023-02-13T07:40:25;103009.44;;;8.33;48.56
9335;BME280;4706;41.844;26.082;2023-02-13T07:42:50;103003.78;;;8.71;48.28
9335;BME280;4706;41.844;26.082;2023-02-13T07:45:16;103005.63;;;8.78;48.06
9335;BME280;4706;41.844;26.082;2023-02-13T07:47:42;103008.34;;;8.96;47.07
9335;BME280;4706;41.844;26.082;2023-02-13T07:50:08;103003.38;;;9.05;46.58
9335;BME280;4706;41.844;26.082;2023-02-13T07:52:34;103006.25;;;9.10;46.05
9335;BME280;4706;41.844;26.082;2023-02-13T07:55:02;102999.47;;;9.12;45.72
9335;BME280;4706;41.844;26.082;2023-02-13T07:57:28;102999.16;;;9.20;46.31
9335;BME280;4706;41.844;26.082;2023-02-13T07:59:53;102994.59;;;9.14;45.35
9335;BME280;4706;41.844;26.082;2023-02-13T08:02:19;102991.72;;;8.91;44.82
9335;BME280;4706;41.844;26.082;2023-02-13T08:04:44;102990.88;;;8.90;46.22
9335;BME280;4706;41.844;26.082;2023-02-13T08:07:14;102992.94;;;9.25;46.54
9335;BME280;4706;41.844;26.082;2023-02-13T08:09:43;102996.66;;;9.61;44.24
9335;BME280;4706;41.844;26.082;2023-02-13T08:12:27;102998.38;;;9.85;44.64
9335;BME280;4706;41.844;26.082;2023-02-13T08:14:53;103000.00;;;10.05;44.10
9335;BME280;4706;41.844;26.082;2023-02-13T08:17:18;102986.00;;;10.30;43.72
9335;BME280;4706;41.844;26.082;2023-02-13T08:19:43;102987.81;;;10.48;43.12
9335;BME280;4706;41.844;26.082;2023-02-13T08:22:09;102981.56;;;10.76;42.45
9335;BME280;4706;41.844;26.082;2023-02-13T08:24:35;102974.13;;;11.05;40.16
9335;BME280;4706;41.844;26.082;2023-02-13T08:27:00;102982.66;;;11.03;39.44
9335;BME280;4706;41.844;26.082;2023-02-13T08:29:26;102973.31;;;11.04;40.71
9335;BME280;4706;41.844;26.082;2023-02-13T08:31:51;102950.72;;;11.19;40.60
9335;BME280;4706;41.844;26.082;2023-02-13T08:34:17;102962.66;;;11.53;39.84
9335;BME280;4706;41.844;26.082;2023-02-13T08:36:42;102969.69;;;11.78;39.27
9335;BME280;4706;41.844;26.082;2023-02-13T08:39:08;102956.59;;;12.02;38.54
9335;BME280;4706;41.844;26.082;2023-02-13T08:41:34;102954.53;;;12.31;37.75
9335;BME280;4706;41.844;26.082;2023-02-13T08:44:00;102964.53;;;12.54;37.35
9335;BME280;4706;41.844;26.082;2023-02-13T08:46:25;102946.41;;;12.63;37.38
9335;BME280;4706;41.844;26.082;2023-02-13T08:48:51;102945.66;;;12.68;36.71
9335;BME280;4706;41.844;26.082;2023-02-13T08:51:17;102949.63;;;12.77;36.62
9335;BME280;4706;41.844;26.082;2023-02-13T08:53:42;102941.72;;;12.85;36.66
9335;BME280;4706;41.844;26.082;2023-02-13T08:56:08;102934.91;;;12.93;36.33
9335;BME280;4706;41.844;26.082;2023-02-13T08:58:34;102933.69;;;13.06;35.91
9335;BME280;4706;41.844;26.082;2023-02-13T09:01:03;102933.50;;;13.18;35.76
9335;BME280;4706;41.844;26.082;2023-02-13T09:03:29;102936.66;;;13.26;36.03
9335;BME280;4706;41.844;26.082;2023-02-13T09:05:57;102938.25;;;13.49;34.46
9335;BME280;4706;41.844;26.082;2023-02-13T09:08:23;102942.00;;;13.65;34.94
9335;BME280;4706;41.844;26.082;2023-02-13T09:10:55;102927.44;;;13.80;34.26
9335;BME280;4706;41.844;26.082;2023-02-13T09:13:22;102934.47;;;13.93;34.01
9335;BME280;4706;41.844;26.082;2023-02-13T09:15:47;102917.44;;;14.11;33.12
9335;BME280;4706;41.844;26.082;2023-02-13T09:18:13;102923.00;;;14.16;32.08
9335;BME280;4706;41.844;26.082;2023-02-13T09:20:38;102913.59;;;14.17;32.16
9335;BME280;4706;41.844;26.082;2023-02-13T09:23:03;102918.34;;;14.22;32.11
9335;BME280;4706;41.844;26.082;2023-02-13T09:25:29;102900.94;;;14.26;32.02
9335;BME280;4706;41.844;26.082;2023-02-13T09:27:54;102907.66;;;14.41;31.28
9335;BME280;4706;41.844;26.082;2023-02-13T09:30:20;102906.25;;;14.38;30.25
9335;BME280;4706;41.844;26.082;2023-02-13T09:32:50;102904.78;;;14.25;30.13
9335;BME280;4706;41.844;26.082;2023-02-13T09:35:17;102897.78;;;14.13;31.00
9335;BME280;4706;41.844;26.082;2023-02-13T09:37:42;102898.97;;;14.22;31.13
9335;BME280;4706;41.844;26.082;2023-02-13T09:40:27;102893.38;;;14.17;30.75
9335;BME280;4706;41.844;26.082;2023-02-13T09:43:11;102885.28;;;14.05;30.35
9335;BME280;4706;41.844;26.082;2023-02-13T09:45:38;102875.09;;;13.68;30.23
9335;BME280;4706;41.844;26.082;2023-02-13T09:48:04;102882.41;;;13.84;30.78
9335;BME280;4706;41.844;26.082;2023-02-13T09:50:31;102880.44;;;13.80;30.67
9335;BME280;4706;41.844;26.082;2023-02-13T09:53:00;102872.19;;;13.90;30.61
9335;BME280;4706;41.844;26.082;2023-02-13T09:55:34;102872.56;;;14.04;30.09
9335;BME280;4706;41.844;26.082;2023-02-13T10:00:51;102861.22;;;14.58;29.97
9335;BME280;4706;41.844;26.082;2023-02-13T10:03:25;102852.94;;;14.63;29.67
9335;BME280;4706;41.844;26.082;2023-02-13T10:16:53;102833.59;;;14.99;29.31
9335;BME280;4706;41.844;26.082;2023-02-13T10:19:56;102838.88;;;15.26;28.62
9335;BME280;4706;41.844;26.082;2023-02-13T10:22:34;102826.69;;;15.42;28.11
9335;BME280;4706;41.844;26.082;2023-02-13T10:27:36;102821.66;;;15.54;29.24
9335;BME280;4706;41.844;26.082;2023-02-13T10:30:30;102810.31;;;15.41;28.40
9335;BME280;4706;41.844;26.082;2023-02-13T10:38:22;102797.78;;;15.74;29.25
9335;BME280;4706;41.844;26.082;2023-02-13T10:41:21;102791.94;;;15.86;29.59
9335;BME280;4706;41.844;26.082;2023-02-13T10:49:32;102780.19;;;16.14;28.86
9335;BME280;4706;41.844;26.082;2023-02-13T11:00:36;102759.72;;;15.90;29.25
9335;BME280;4706;41.844;26.082;2023-02-13T11:03:03;102761.94;;;15.93;29.54
9335;BME280;4706;41.844;26.082;2023-02-13T11:05:36;102739.34;;;16.10;29.48
9335;BME280;4706;41.844;26.082;2023-02-13T11:08:02;102738.44;;;16.24;29.78
9335;BME280;4706;41.844;26.082;2023-02-13T11:10:28;102731.91;;;16.49;29.21
9335;BME280;4706;41.844;26.082;2023-02-13T11:12:54;102728.75;;;16.66;28.64
9335;BME280;4706;41.844;26.082;2023-02-13T11:15:30;102730.25;;;16.88;28.46
9335;BME280;4706;41.844;26.082;2023-02-13T11:17:59;102716.75;;;16.76;28.03
9335;BME280;4706;41.844;26.082;2023-02-13T11:20:37;102718.72;;;16.70;28.22
9335;BME280;4706;41.844;26.082;2023-02-13T11:26:20;102706.47;;;16.71;28.19
9335;BME280;4706;41.844;26.082;2023-02-13T11:28:56;102708.88;;;16.49;28.12
9335;BME280;4706;41.844;26.082;2023-02-13T11:33:51;102694.03;;;16.64;27.72
9335;BME280;4706;41.844;26.082;2023-02-13T11:36:27;102688.78;;;16.57;28.38
9335;BME280;4706;41.844;26.082;2023-02-13T11:39:16;102691.53;;;16.62;28.31
9335;BME280;4706;41.844;26.082;2023-02-13T11:41:43;102685.75;;;16.59;28.24
9335;BME280;4706;41.844;26.082;2023-02-13T11:46:49;102680.84;;;16.45;28.79
9335;BME280;4706;41.844;26.082;2023-02-13T11:49:23;102674.72;;;16.43;28.59
9335;BME280;4706;41.844;26.082;2023-02-13T11:51:55;102670.78;;;16.49;28.60
9335;BME280;4706;41.844;26.082;2023-02-13T11:56:55;102666.81;;;16.26;28.27
9335;BME280;4706;41.844;26.082;2023-02-13T11:59:24;102668.47;;;16.27;28.86
9335;BME280;4706;41.844;26.082;2023-02-13T12:02:13;102652.28;;;16.35;28.87
9335;BME280;4706;41.844;26.082;2023-02-13T12:04:39;102667.00;;;16.35;28.44
9335;BME280;4706;41.844;26.082;2023-02-13T12:09:44;102650.22;;;16.16;28.88
9335;BME280;4706;41.844;26.082;2023-02-13T12:12:18;102648.75;;;16.24;29.04
9335;BME280;4706;41.844;26.082;2023-02-13T12:14:45;102647.16;;;16.18;29.30
9335;BME280;4706;41.844;26.082;2023-02-13T12:17:16;102647.19;;;16.13;29.02
9335;BME280;4706;41.844;26.082;2023-02-13T12:19:46;102640.19;;;16.20;28.64
9335;BME280;4706;41.844;26.082;2023-02-13T12:31:15;102631.22;;;15.89;29.16
9335;BME280;4706;41.844;26.082;2023-02-13T12:41:35;102623.03;;;15.69;29.73
9335;BME280;4706;41.844;26.082;2023-02-13T12:44:21;102623.81;;;15.74;29.89
9335;BME280;4706;41.844;26.082;2023-02-13T13:00:35;102603.41;;;15.99;29.31
9335;BME280;4706;41.844;26.082;2023-02-13T13:03:30;102565.91;;;15.58;29.65
9335;BME280;4706;41.844;26.082;2023-02-13T13:17:57;102578.69;;;15.53;30.11
9335;BME280;4706;41.844;26.082;2023-02-13T13:20:29;102568.69;;;15.58;29.86
9335;BME280;4706;41.844;26.082;2023-02-13T13:23:06;102570.09;;;15.50;30.55
9335;BME280;4706;41.844;26.082;2023-02-13T13:28:35;102565.81;;;15.18;31.07
9335;BME280;4706;41.844;26.082;2023-02-13T13:31:02;102564.13;;;15.22;30.64
9335;BME280;4706;41.844;26.082;2023-02-13T13:33:29;102567.44;;;15.24;31.08
9335;BME280;4706;41.844;26.082;2023-02-13T13:36:21;102566.28;;;15.30;31.08
9335;BME280;4706;41.844;26.082;2023-02-13T13:39:05;102561.88;;;15.35;31.03
9335;BME280;4706;41.844;26.082;2023-02-13T13:49:56;102553.66;;;15.04;30.92
9335;BME280;4706;41.844;26.082;2023-02-13T13:52:28;102560.06;;;15.04;30.70
9335;BME280;4706;41.844;26.082;2023-02-13T13:54:56;102555.13;;;14.86;30.81
9335;BME280;4706;41.844;26.082;2023-02-13T13:57:27;102556.81;;;14.72;31.49
9335;BME280;4706;41.844;26.082;2023-02-13T14:02:49;102550.47;;;14.56;31.81
9335;BME280;4706;41.844;26.082;2023-02-13T14:05:32;102554.34;;;14.55;31.93
9335;BME280;4706;41.844;26.082;2023-02-13T14:08:00;102543.84;;;14.52;31.56
9335;BME280;4706;41.844;26.082;2023-02-13T14:18:01;102545.19;;;13.88;32.65
9335;BME280;4706;41.844;26.082;2023-02-13T14:20:38;102545.75;;;13.85;33.17
9335;BME280;4706;41.844;26.082;2023-02-13T14:25:39;102534.09;;;13.83;33.01
9335;BME280;4706;41.844;26.082;2023-02-13T14:28:05;102536.34;;;13.86;32.94
9335;BME280;4706;41.844;26.082;2023-02-13T14:30:34;102521.38;;;13.72;33.11
9335;BME280;4706;41.844;26.082;2023-02-13T14:33:19;102529.66;;;13.67;33.36
9335;BME280;4706;41.844;26.082;2023-02-13T14:35:58;102536.56;;;13.59;33.32
9335;BME280;4706;41.844;26.082;2023-02-13T14:38:24;102534.88;;;13.53;33.40
9335;BME280;4706;41.844;26.082;2023-02-13T14:40:52;102506.63;;;13.30;33.33
9335;BME280;4706;41.844;26.082;2023-02-13T14:46:38;102526.47;;;13.17;35.01
9335;BME280;4706;41.844;26.082;2023-02-13T14:51:55;102524.72;;;12.96;34.33
9335;BME280;4706;41.844;26.082;2023-02-13T14:57:17;102511.03;;;12.69;35.02
9335;BME280;4706;41.844;26.082;2023-02-13T14:59:49;102523.44;;;12.66;35.34
9335;BME280;4706;41.844;26.082;2023-02-13T15:02:26;102512.97;;;12.68;35.80
9335;BME280;4706;41.844;26.082;2023-02-13T15:04:57;102515.72;;;12.68;35.79
9335;BME280;4706;41.844;26.082;2023-02-13T15:07:30;102514.06;;;12.67;35.90
9335;BME280;4706;41.844;26.082;2023-02-13T15:10:46;102513.28;;;12.72;36.14
9335;BME280;4706;41.844;26.082;2023-02-13T15:12:55;102519.56;;;12.67;35.82
9335;BME280;4706;41.844;26.082;2023-02-13T15:15:27;102515.97;;;12.61;35.96
9335;BME280;4706;41.844;26.082;2023-02-13T15:18:00;102517.03;;;12.55;35.81
9335;BME280;4706;41.844;26.082;2023-02-13T15:20:29;102513.72;;;12.58;36.08
9335;BME280;4706;41.844;26.082;2023-02-13T15:22:57;102504.84;;;12.46;35.99
9335;BME280;4706;41.844;26.082;2023-02-13T15:27:54;102513.81;;;12.26;36.22
9335;BME280;4706;41.844;26.082;2023-02-13T15:30:36;102508.22;;;12.16;37.53
9335;BME280;4706;41.844;26.082;2023-02-13T15:33:15;102495.56;;;12.25;36.06
9335;BME280;4706;41.844;26.082;2023-02-13T15:35:41;102500.47;;;12.18;37.06
9335;BME280;4706;41.844;26.082;2023-02-13T15:38:36;102513.41;;;12.12;36.95
9335;BME280;4706;41.844;26.082;2023-02-13T15:43:41;102518.53;;;11.99;37.41
9335;BME280;4706;41.844;26.082;2023-02-13T15:46:19;102514.34;;;11.91;37.13
9335;BME280;4706;41.844;26.082;2023-02-13T15:48:46;102514.03;;;11.87;37.54
9335;BME280;4706;41.844;26.082;2023-02-13T15:51:28;102498.63;;;11.91;37.33
9335;BME280;4706;41.844;26.082;2023-02-13T15:54:03;102511.56;;;11.91;37.22
9335;BME280;4706;41.844;26.082;2023-02-13T15:56:30;102512.81;;;11.78;37.75
9335;BME280;4706;41.844;26.082;2023-02-13T15:58:57;102510.78;;;11.68;37.82
9335;BME280;4706;41.844;26.082;2023-02-13T16:01:23;102499.75;;;11.68;38.18
9335;BME280;4706;41.844;26.082;2023-02-13T16:03:55;102509.94;;;11.68;38.14
9335;BME280;4706;41.844;26.082;2023-02-13T16:06:24;102493.06;;;11.59;37.68
9335;BME280;4706;41.844;26.082;2023-02-13T16:08:53;102500.94;;;11.51;38.26
9335;BME280;4706;41.844;26.082;2023-02-13T16:16:22;102509.19;;;11.24;39.08
9335;BME280;4706;41.844;26.082;2023-02-13T16:18:50;102514.06;;;11.16;38.98